Time;durP1;ratioP1;P1;durP2;ratioP2;P2;SDS_P1;SDS_P2;PMS_P1;PMS_P2;Temp;Humidity;BMP_temperature;BMP_pressure;BME280_temperature;BME280_humidity;BME280_pressure;Samples;Min_cycle;Max_cycle;Signal;HPM_P1;HPM_P2
2021/07/03 00:02:15;;;;;;;6.65;4.60;;;17.90;86.10;;;;;;4930495;29;20040;-86
2021/07/03 00:04:42;;;;;;;7.05;4.70;;;17.80;85.80;;;;;;4913935;29;20029;-86
2021/07/03 00:07:08;;;;;;;6.57;4.65;;;17.80;85.70;;;;;;4923775;29;20053;-87
2021/07/03 00:09:35;;;;;;;6.57;4.75;;;17.80;85.80;;;;;;4888725;29;20115;-87
2021/07/03 00:12:02;;;;;;;8.82;5.15;;;17.80;86.00;;;;;;4916611;29;20127;-84
2021/07/03 00:14:29;;;;;;;6.68;4.93;;;17.70;85.80;;;;;;4894843;29;20039;-83
2021/07/03 00:16:55;;;;;;;6.15;4.70;;;17.70;85.80;;;;;;4882822;29;20029;-84
2021/07/03 00:19:20;;;;;;;6.80;4.75;;;17.80;85.70;;;;;;4887711;29;20037;-84
2021/07/03 00:21:46;;;;;;;8.13;4.55;;;17.80;85.70;;;;;;4898683;29;20043;-84
2021/07/03 00:24:12;;;;;;;7.15;4.55;;;17.80;85.90;;;;;;4915050;29;20025;-84
2021/07/03 00:26:37;;;;;;;8.48;5.43;;;17.70;86.30;;;;;;4897243;29;20387;-83
2021/07/03 00:29:03;;;;;;;6.30;4.47;;;17.70;86.50;;;;;;4899090;29;20025;-83
2021/07/03 00:31:30;;;;;;;8.18;4.97;;;17.60;86.50;;;;;;4889345;29;20077;-83
2021/07/03 00:33:55;;;;;;;7.93;5.38;;;17.40;87.10;;;;;;4891862;29;20029;-83
2021/07/03 00:36:21;;;;;;;8.63;5.43;;;17.30;87.50;;;;;;4913903;29;20116;-82
2021/07/03 00:38:47;;;;;;;11.02;5.85;;;17.30;88.00;;;;;;4898545;29;20056;-82
2021/07/03 00:41:12;;;;;;;6.50;4.65;;;17.30;88.40;;;;;;4922529;29;20490;-82
2021/07/03 00:43:38;;;;;;;7.72;4.68;;;17.20;88.60;;;;;;4890296;29;20112;-86
2021/07/03 00:46:04;;;;;;;8.30;5.10;;;17.20;88.70;;;;;;4885471;29;20104;-85
2021/07/03 00:48:29;;;;;;;8.27;5.25;;;17.20;88.80;;;;;;4897921;29;20025;-86
2021/07/03 00:51:00;;;;;;;10.57;4.68;;;17.20;88.90;;;;;;4897724;29;20045;-85
2021/07/03 00:53:26;;;;;;;10.48;4.53;;;17.20;88.70;;;;;;4897801;29;20032;-83
2021/07/03 00:55:53;;;;;;;9.15;5.13;;;17.10;88.60;;;;;;4898077;29;20033;-85
2021/07/03 00:58:19;;;;;;;8.40;5.20;;;17.10;88.60;;;;;;4898308;29;20035;-86
2021/07/03 01:00:45;;;;;;;7.03;4.70;;;17.10;88.70;;;;;;4898753;29;20036;-86
2021/07/03 01:03:11;;;;;;;8.48;4.95;;;17.10;88.40;;;;;;4898277;29;20044;-86
2021/07/03 01:05:36;;;;;;;7.05;4.65;;;17.20;88.20;;;;;;4897966;29;20040;-85
2021/07/03 01:08:02;;;;;;;8.00;4.85;;;17.20;87.90;;;;;;4898743;29;20037;-86
2021/07/03 01:10:29;;;;;;;8.85;5.05;;;17.20;87.80;;;;;;4898676;29;20039;-85
2021/07/03 01:12:56;;;;;;;7.75;4.68;;;17.20;87.90;;;;;;4898038;29;20033;-85
2021/07/03 01:15:23;;;;;;;8.27;4.60;;;17.20;87.60;;;;;;4899162;29;20472;-85
2021/07/03 01:17:49;;;;;;;6.50;4.30;;;17.20;87.80;;;;;;4898346;29;20028;-86
2021/07/03 01:20:16;;;;;;;10.63;4.75;;;17.10;88.20;;;;;;4898583;29;20482;-82
2021/07/03 01:22:44;;;;;;;7.18;4.65;;;17.10;88.30;;;;;;4900666;29;20037;-87
2021/07/03 01:25:12;;;;;;;7.40;4.53;;;17.10;87.60;;;;;;4902997;29;20029;-87
2021/07/03 01:27:39;;;;;;;7.32;4.70;;;17.20;87.20;;;;;;4901390;29;20028;-89
2021/07/03 01:30:07;;;;;;;8.43;5.03;;;17.20;87.40;;;;;;4901462;29;20033;-84
2021/07/03 01:32:33;;;;;;;7.88;4.75;;;17.10;87.40;;;;;;4902274;29;20115;-83
2021/07/03 01:34:58;;;;;;;8.02;4.38;;;17.10;87.90;;;;;;4901552;29;20535;-83
2021/07/03 01:37:24;;;;;;;6.75;4.80;;;17.10;87.70;;;;;;4902553;29;20100;-83
2021/07/03 01:39:50;;;;;;;7.05;4.72;;;17.00;88.10;;;;;;4899914;29;20029;-83
2021/07/03 01:42:16;;;;;;;6.32;4.70;;;16.90;88.40;;;;;;4901446;29;20395;-83
2021/07/03 01:44:44;;;;;;;6.55;4.43;;;16.80;88.80;;;;;;4901889;29;20550;-82
2021/07/03 01:47:10;;;;;;;6.00;4.38;;;16.70;89.10;;;;;;4902539;29;20020;-83
2021/07/03 01:49:38;;;;;;;7.68;4.28;;;16.80;89.30;;;;;;4932462;29;20493;-83
2021/07/03 01:52:04;;;;;;;7.03;4.47;;;16.70;89.10;;;;;;4932548;29;20056;-83
2021/07/03 01:54:29;;;;;;;8.00;5.10;;;16.80;89.00;;;;;;4932287;29;20088;-83
2021/07/03 01:56:58;;;;;;;7.85;4.43;;;16.80;88.80;;;;;;4933097;29;20124;-82
2021/07/03 01:59:28;;;;;;;7.07;4.85;;;16.80;88.30;;;;;;4902155;29;20028;-82
2021/07/03 02:01:55;;;;;;;7.50;4.65;;;16.80;88.40;;;;;;4932697;29;20035;-83
2021/07/03 02:04:21;;;;;;;8.07;4.40;;;16.70;88.90;;;;;;4902274;29;20104;-83
2021/07/03 02:06:47;;;;;;;9.95;5.18;;;16.60;89.10;;;;;;4901832;29;20059;-83
2021/07/03 02:09:15;;;;;;;7.82;4.72;;;16.60;89.80;;;;;;4932802;29;20059;-83
2021/07/03 02:11:41;;;;;;;8.77;4.85;;;16.60;89.80;;;;;;4931824;29;20036;-81
2021/07/03 02:14:07;;;;;;;8.07;5.22;;;16.50;89.60;;;;;;4901489;29;20051;-83
2021/07/03 02:16:34;;;;;;;7.93;4.60;;;16.50;90.00;;;;;;4901166;29;20084;-83
2021/07/03 02:19:01;;;;;;;6.82;4.78;;;16.50;90.00;;;;;;4901828;29;20029;-83
2021/07/03 02:21:26;;;;;;;8.00;5.00;;;16.40;90.10;;;;;;4900802;29;20033;-83
2021/07/03 02:23:52;;;;;;;11.60;4.82;;;16.40;90.20;;;;;;4900492;29;20025;-82
2021/07/03 02:26:18;;;;;;;6.25;4.70;;;16.40;90.20;;;;;;4900713;29;20028;-82
2021/07/03 02:28:43;;;;;;;7.05;4.40;;;16.50;90.10;;;;;;4900284;29;20039;-83
2021/07/03 02:31:09;;;;;;;8.02;4.72;;;16.50;89.80;;;;;;4900303;29;20522;-83
2021/07/03 02:33:35;;;;;;;10.35;5.13;;;16.50;89.80;;;;;;4899577;29;20036;-83
2021/07/03 02:36:00;;;;;;;9.25;5.18;;;16.50;89.80;;;;;;4900415;29;20033;-82
2021/07/03 02:38:26;;;;;;;6.18;4.40;;;16.50;89.40;;;;;;4900434;29;20025;-83
2021/07/03 02:40:52;;;;;;;8.32;4.45;;;16.40;90.00;;;;;;4901045;29;20080;-83
2021/07/03 02:43:17;;;;;;;8.10;4.43;;;16.30;90.20;;;;;;4901439;29;20108;-83
2021/07/03 02:45:43;;;;;;;8.68;4.20;;;16.20;90.50;;;;;;4901122;29;20052;-83
2021/07/03 02:48:09;;;;;;;5.93;3.92;;;16.10;90.60;;;;;;4900320;29;20474;-82
2021/07/03 02:50:34;;;;;;;6.05;4.35;;;16.20;90.40;;;;;;4899283;29;20040;-83
2021/07/03 02:53:00;;;;;;;6.20;4.55;;;16.10;90.60;;;;;;4900802;29;20084;-82
2021/07/03 02:55:27;;;;;;;6.60;4.47;;;16.10;90.50;;;;;;4900018;29;20060;-83
2021/07/03 02:57:53;;;;;;;8.20;4.47;;;16.00;90.60;;;;;;4899570;29;20497;-82
2021/07/03 03:00:19;;;;;;;8.43;4.57;;;16.00;90.40;;;;;;4900019;29;20085;-83
2021/07/03 03:02:44;;;;;;;8.07;4.68;;;16.00;90.30;;;;;;4899394;29;20104;-83
2021/07/03 03:05:11;;;;;;;6.43;4.60;;;16.00;90.30;;;;;;4899842;29;20486;-84
2021/07/03 03:07:39;;;;;;;6.20;4.40;;;16.10;90.30;;;;;;4899573;29;20033;-83
2021/07/03 03:10:06;;;;;;;7.85;4.40;;;16.10;90.10;;;;;;4900034;29;20043;-83
2021/07/03 03:12:32;;;;;;;10.45;5.10;;;16.00;90.20;;;;;;4899113;29;20033;-84
2021/07/03 03:14:58;;;;;;;6.43;4.93;;;15.90;90.30;;;;;;4900924;29;20107;-84
2021/07/03 03:17:24;;;;;;;7.15;4.40;;;15.90;90.50;;;;;;4900697;29;20021;-83
2021/07/03 03:19:49;;;;;;;9.40;4.85;;;15.90;90.70;;;;;;4899203;29;20029;-83
2021/07/03 03:22:15;;;;;;;8.90;4.93;;;15.90;90.50;;;;;;4900591;29;20470;-82
2021/07/03 03:24:40;;;;;;;7.47;4.68;;;15.90;90.50;;;;;;4898911;29;20064;-83
2021/07/03 03:27:06;;;;;;;9.18;5.00;;;15.90;90.50;;;;;;4899644;29;20034;-82
2021/07/03 03:29:32;;;;;;;6.70;4.55;;;15.90;90.20;;;;;;4899946;29;20484;-82
2021/07/03 03:31:58;;;;;;;8.85;5.00;;;16.00;90.10;;;;;;4900327;29;20048;-83
2021/07/03 03:34:24;;;;;;;7.93;4.53;;;16.00;89.80;;;;;;4899094;29;20111;-82
2021/07/03 03:36:49;;;;;;;8.25;4.47;;;16.00;90.00;;;;;;4898663;29;20036;-83
2021/07/03 03:39:15;;;;;;;7.78;4.10;;;15.90;90.00;;;;;;4900200;29;20037;-82
2021/07/03 03:41:40;;;;;;;6.10;3.85;;;15.90;90.10;;;;;;4898696;29;20032;-83
2021/07/03 03:44:06;;;;;;;7.43;4.60;;;15.90;90.20;;;;;;4899321;29;20386;-82
2021/07/03 03:46:31;;;;;;;6.13;4.20;;;15.90;90.10;;;;;;4898508;29;20030;-84
2021/07/03 03:48:57;;;;;;;6.30;3.90;;;15.90;90.10;;;;;;4899083;29;20033;-83
2021/07/03 03:51:23;;;;;;;8.23;4.63;;;15.80;90.10;;;;;;4900055;29;20108;-83
2021/07/03 03:53:48;;;;;;;6.50;3.95;;;15.80;90.30;;;;;;4898666;29;20553;-82
2021/07/03 03:56:14;;;;;;;7.43;4.57;;;15.80;90.20;;;;;;4900292;29;20423;-82
2021/07/03 03:58:40;;;;;;;7.50;4.60;;;15.80;90.20;;;;;;4899565;29;20029;-82
2021/07/03 04:01:05;;;;;;;7.75;4.38;;;15.60;90.50;;;;;;4898771;29;20055;-83
2021/07/03 04:03:31;;;;;;;8.57;4.72;;;15.60;90.70;;;;;;4899851;29;20081;-83
2021/07/03 04:05:57;;;;;;;6.90;4.38;;;15.50;90.80;;;;;;4899073;29;20076;-83
2021/07/03 04:08:22;;;;;;;7.03;4.70;;;15.40;91.00;;;;;;4899784;29;20051;-83
2021/07/03 04:10:48;;;;;;;7.13;4.40;;;15.50;91.00;;;;;;4899433;29;20033;-83
2021/07/03 04:13:13;;;;;;;8.57;4.65;;;15.50;90.80;;;;;;4898773;29;20033;-83
2021/07/03 04:15:39;;;;;;;5.03;4.00;;;15.50;90.70;;;;;;4898979;29;20442;-84
2021/07/03 04:18:05;;;;;;;6.57;4.75;;;15.60;90.60;;;;;;4899600;29;20031;-83
2021/07/03 04:20:30;;;;;;;5.78;4.13;;;15.50;90.60;;;;;;4898340;29;20047;-82
2021/07/03 04:22:56;;;;;;;7.28;4.07;;;15.50;90.60;;;;;;4898458;29;20065;-82
2021/07/03 04:25:22;;;;;;;5.90;3.80;;;15.50;90.70;;;;;;4898650;29;20050;-82
2021/07/03 04:27:48;;;;;;;7.97;4.43;;;15.60;90.70;;;;;;4898989;29;20496;-81
2021/07/03 04:30:15;;;;;;;7.00;4.22;;;15.60;90.60;;;;;;4899233;29;20034;-82
2021/07/03 04:32:43;;;;;;;7.43;4.60;;;15.70;90.70;;;;;;4898247;29;20055;-82
2021/07/03 04:35:10;;;;;;;6.85;4.00;;;15.80;90.40;;;;;;4898255;29;20478;-82
2021/07/03 04:37:36;;;;;;;10.55;4.35;;;15.80;90.30;;;;;;4897634;29;20474;-83
2021/07/03 04:40:03;;;;;;;6.13;4.22;;;15.80;90.30;;;;;;4898304;29;20073;-82
2021/07/03 04:42:29;;;;;;;6.97;3.83;;;15.90;90.30;;;;;;4897942;29;20056;-82
2021/07/03 04:44:54;;;;;;;9.07;4.40;;;16.00;90.10;;;;;;4897258;29;20052;-82
2021/07/03 04:47:20;;;;;;;6.10;4.22;;;16.00;90.10;;;;;;4898029;29;20035;-82
2021/07/03 04:49:46;;;;;;;10.63;4.32;;;16.00;90.10;;;;;;4898434;29;20107;-82
2021/07/03 04:52:11;;;;;;;7.25;4.50;;;16.00;90.00;;;;;;4897892;29;20068;-82
2021/07/03 04:54:37;;;;;;;7.70;4.43;;;16.10;90.10;;;;;;4898610;29;20035;-83
2021/07/03 04:57:11;;;;;;;8.23;4.65;;;16.00;90.10;;;;;;4898724;29;20107;-83
2021/07/03 04:59:41;;;;;;;8.05;4.15;;;16.10;89.90;;;;;;4897911;29;20028;-83
2021/07/03 05:02:09;;;;;;;6.97;4.17;;;16.20;89.90;;;;;;4898118;29;20123;-82
2021/07/03 05:04:36;;;;;;;5.40;4.10;;;16.20;89.60;;;;;;4897173;29;20386;-83
2021/07/03 05:07:02;;;;;;;6.97;4.32;;;16.20;89.80;;;;;;4897884;29;20084;-84
2021/07/03 05:09:28;;;;;;;7.18;4.05;;;16.20;90.00;;;;;;4898798;29;20176;-83
2021/07/03 05:11:53;;;;;;;7.47;4.15;;;16.20;90.10;;;;;;4898409;29;20533;-84
2021/07/03 05:14:19;;;;;;;6.18;4.18;;;16.30;90.00;;;;;;4897914;29;20033;-84
2021/07/03 05:16:44;;;;;;;7.05;4.22;;;16.20;90.20;;;;;;4898167;29;20032;-83
2021/07/03 05:19:10;;;;;;;7.95;4.03;;;16.20;90.30;;;;;;4929029;29;20056;-83
2021/07/03 05:21:36;;;;;;;6.15;4.35;;;16.20;90.50;;;;;;4898039;29;20059;-84
2021/07/03 05:24:02;;;;;;;9.57;4.30;;;16.20;90.40;;;;;;4897478;29;20036;-82
2021/07/03 05:26:28;;;;;;;6.50;4.10;;;16.20;90.50;;;;;;4897539;29;20431;-83
2021/07/03 05:28:53;;;;;;;6.32;4.25;;;16.30;90.70;;;;;;4897149;29;20084;-83
2021/07/03 05:31:19;;;;;;;6.05;4.28;;;16.30;90.50;;;;;;4898279;29;20032;-83
2021/07/03 05:33:44;;;;;;;5.68;4.38;;;16.30;90.50;;;;;;4912982;29;20029;-83
2021/07/03 05:36:10;;;;;;;5.68;3.70;;;16.30;90.40;;;;;;4897759;29;20081;-83
2021/07/03 05:38:41;;;;;;;7.63;4.43;;;16.40;90.20;;;;;;4898293;29;20032;-85
2021/07/03 05:41:07;;;;;;;5.32;3.88;;;16.50;90.30;;;;;;4898459;29;20036;-83
2021/07/03 05:43:33;;;;;;;6.90;4.57;;;16.60;90.30;;;;;;4897352;29;20040;-83
2021/07/03 05:45:59;;;;;;;6.22;3.78;;;16.60;90.20;;;;;;4896924;29;20025;-82
2021/07/03 05:48:25;;;;;;;7.20;4.53;;;16.60;90.20;;;;;;4897175;29;20068;-82
2021/07/03 05:50:50;;;;;;;6.85;4.30;;;16.70;90.30;;;;;;4928159;29;20395;-82
2021/07/03 05:53:16;;;;;;;5.47;4.25;;;16.70;90.20;;;;;;4928924;29;20029;-84
2021/07/03 05:55:42;;;;;;;6.32;3.78;;;16.70;90.10;;;;;;4896728;29;20033;-83
2021/07/03 05:58:07;;;;;;;5.65;3.95;;;16.70;90.10;;;;;;4897330;29;20033;-83
2021/07/03 06:00:33;;;;;;;5.60;3.97;;;16.80;90.10;;;;;;4898020;29;20037;-83
2021/07/03 06:02:59;;;;;;;7.38;4.28;;;16.80;89.80;;;;;;4896735;29;20083;-83
2021/07/03 06:05:24;;;;;;;6.10;4.25;;;16.90;89.40;;;;;;4897125;29;20033;-84
2021/07/03 06:07:50;;;;;;;4.75;3.75;;;16.90;88.50;;;;;;4897959;29;20028;-84
2021/07/03 06:10:16;;;;;;;7.15;4.43;;;17.00;88.00;;;;;;4901713;29;20381;-83
2021/07/03 06:12:42;;;;;;;8.75;4.45;;;17.10;88.10;;;;;;4900293;29;20040;-83
2021/07/03 06:15:09;;;;;;;6.30;4.07;;;17.20;87.40;;;;;;4900650;29;20036;-82
2021/07/03 06:17:34;;;;;;;10.85;4.57;;;17.20;87.30;;;;;;4901073;29;20032;-82
2021/07/03 06:20:00;;;;;;;5.95;4.13;;;17.20;87.50;;;;;;4931493;29;20028;-83
2021/07/03 06:22:26;;;;;;;7.60;3.90;;;17.20;87.40;;;;;;4931861;29;20032;-83
2021/07/03 06:24:52;;;;;;;7.28;4.05;;;17.20;86.70;;;;;;4901065;29;20171;-83
2021/07/03 06:27:17;;;;;;;5.88;4.03;;;17.40;86.30;;;;;;4932180;29;20024;-82
2021/07/03 06:29:43;;;;;;;5.78;4.05;;;17.50;85.70;;;;;;4931458;29;20084;-83
2021/07/03 06:32:10;;;;;;;6.80;4.32;;;17.40;85.60;;;;;;4901380;29;20040;-83
2021/07/03 06:34:36;;;;;;;7.13;4.60;;;17.50;85.40;;;;;;4901252;29;20036;-83
2021/07/03 06:37:02;;;;;;;5.68;3.90;;;17.60;85.40;;;;;;4899829;29;20036;-83
2021/07/03 06:39:28;;;;;;;5.70;3.90;;;17.70;85.40;;;;;;4901525;29;20128;-83
2021/07/03 06:41:54;;;;;;;5.20;4.05;;;17.70;85.60;;;;;;4900714;29;20120;-84
2021/07/03 06:44:20;;;;;;;6.38;3.80;;;17.80;85.30;;;;;;4900161;29;20073;-84
2021/07/03 06:46:46;;;;;;;6.18;4.13;;;17.90;85.80;;;;;;4899693;29;20446;-84
2021/07/03 06:49:15;;;;;;;6.32;3.88;;;17.90;85.60;;;;;;4915712;29;20032;-84
2021/07/03 06:51:41;;;;;;;6.30;4.28;;;18.00;85.60;;;;;;4928099;29;20056;-84
2021/07/03 06:54:08;;;;;;;5.00;3.90;;;18.00;85.80;;;;;;4900936;29;20033;-84
2021/07/03 06:56:33;;;;;;;6.60;3.80;;;18.10;86.30;;;;;;4915658;29;20036;-84
2021/07/03 06:58:59;;;;;;;10.55;5.68;;;18.10;85.50;;;;;;4900822;29;20342;-84
2021/07/03 07:01:25;;;;;;;10.68;5.57;;;18.20;85.60;;;;;;4899743;29;20029;-83
2021/07/03 07:03:50;;;;;;;8.02;4.57;;;18.30;85.10;;;;;;4899321;29;20111;-83
2021/07/03 07:06:16;;;;;;;7.13;4.22;;;18.30;84.60;;;;;;4901021;29;20111;-83
2021/07/03 07:08:42;;;;;;;6.78;4.07;;;18.30;84.90;;;;;;4915086;29;20064;-83
2021/07/03 07:11:07;;;;;;;7.85;4.40;;;18.40;84.90;;;;;;4891097;29;20044;-84
2021/07/03 07:13:33;;;;;;;7.75;4.72;;;18.40;85.00;;;;;;4912403;29;20064;-83
2021/07/03 07:15:59;;;;;;;6.78;4.82;;;18.50;85.00;;;;;;4918793;29;20033;-83
2021/07/03 07:18:25;;;;;;;7.88;4.82;;;18.50;85.20;;;;;;4914595;29;20036;-83
2021/07/03 07:20:50;;;;;;;7.43;4.88;;;18.50;85.40;;;;;;4899290;29;20039;-82
2021/07/03 07:23:16;;;;;;;6.88;4.63;;;18.60;85.20;;;;;;4899635;29;20028;-82
2021/07/03 07:25:42;;;;;;;7.30;4.25;;;18.60;84.50;;;;;;4898673;29;20119;-83
2021/07/03 07:28:08;;;;;;;7.90;4.88;;;18.60;84.10;;;;;;4900491;29;20041;-83
2021/07/03 07:30:33;;;;;;;5.72;4.10;;;18.60;83.90;;;;;;4899893;29;20097;-83
2021/07/03 07:32:59;;;;;;;6.38;4.60;;;18.70;84.50;;;;;;4899048;29;20036;-83
2021/07/03 07:35:25;;;;;;;5.93;4.50;;;18.80;84.40;;;;;;4898976;29;20120;-82
2021/07/03 07:37:51;;;;;;;7.10;4.72;;;18.90;83.70;;;;;;4899737;29;20031;-81
2021/07/03 07:40:19;;;;;;;8.98;4.47;;;18.90;83.40;;;;;;4898811;29;20095;-82
2021/07/03 07:42:45;;;;;;;6.85;4.38;;;18.90;82.90;;;;;;4898629;29;20493;-83
2021/07/03 07:45:11;;;;;;;5.85;4.50;;;18.90;82.80;;;;;;4900084;29;20036;-83
2021/07/03 07:47:37;;;;;;;7.60;4.43;;;18.90;82.90;;;;;;4898486;29;20072;-82
2021/07/03 07:50:07;;;;;;;5.40;4.43;;;18.90;83.10;;;;;;4899516;29;20032;-81
2021/07/03 07:52:33;;;;;;;6.55;4.50;;;19.00;82.90;;;;;;4898720;29;20509;-83
2021/07/03 07:54:59;;;;;;;7.05;4.60;;;19.00;82.90;;;;;;4898496;29;20390;-83
2021/07/03 07:57:25;;;;;;;6.07;4.47;;;18.90;82.90;;;;;;4899897;29;20029;-83
2021/07/03 07:59:51;;;;;;;5.28;4.45;;;19.00;83.40;;;;;;4898689;29;20493;-83
2021/07/03 08:02:16;;;;;;;6.78;5.18;;;19.00;84.80;;;;;;4899915;29;20029;-83
2021/07/03 08:04:42;;;;;;;9.68;4.93;;;19.20;85.00;;;;;;4898936;29;20391;-83
2021/07/03 08:07:09;;;;;;;7.00;4.90;;;19.30;85.10;;;;;;4883137;29;20035;-82
2021/07/03 08:09:34;;;;;;;8.20;4.80;;;19.40;84.10;;;;;;4898362;29;20028;-83
2021/07/03 08:12:00;;;;;;;7.30;4.68;;;19.40;84.00;;;;;;4897970;29;20059;-85
2021/07/03 08:14:26;;;;;;;8.45;4.80;;;19.50;84.90;;;;;;4898150;29;20039;-84
2021/07/03 08:16:51;;;;;;;6.88;4.65;;;19.50;83.80;;;;;;4898685;29;20032;-82
2021/07/03 08:19:17;;;;;;;7.35;4.63;;;19.50;84.00;;;;;;4930144;29;20033;-82
2021/07/03 08:21:44;;;;;;;7.32;4.72;;;19.60;83.50;;;;;;4898387;29;20041;-85
2021/07/03 08:24:10;;;;;;;7.68;4.85;;;19.70;83.60;;;;;;4882985;29;20028;-83
2021/07/03 08:26:36;;;;;;;6.60;4.60;;;19.70;83.40;;;;;;4898045;29;20041;-84
2021/07/03 08:29:03;;;;;;;6.32;4.30;;;19.80;83.40;;;;;;4898052;29;20035;-84
2021/07/03 08:31:28;;;;;;;5.70;4.45;;;19.80;83.40;;;;;;4898189;29;20051;-85
2021/07/03 08:33:54;;;;;;;7.70;4.75;;;19.80;82.90;;;;;;4897732;29;20033;-85
2021/07/03 08:36:20;;;;;;;5.47;4.32;;;19.80;82.50;;;;;;4899001;29;20111;-84
2021/07/03 08:38:45;;;;;;;8.32;4.88;;;19.90;82.90;;;;;;4897947;29;20055;-85
2021/07/03 08:41:12;;;;;;;6.45;4.93;;;20.00;82.70;;;;;;4898374;29;20032;-83
2021/07/03 08:43:46;;;;;;;7.63;4.85;;;19.90;82.90;;;;;;4898266;29;20029;-84
2021/07/03 08:46:12;;;;;;;6.45;5.07;;;20.00;83.60;;;;;;4898793;29;20112;-82
2021/07/03 08:48:38;;;;;;;7.40;5.13;;;20.00;83.60;;;;;;4899010;29;20048;-83
2021/07/03 08:51:03;;;;;;;6.30;4.63;;;20.00;83.60;;;;;;4923594;29;20053;-83
2021/07/03 08:53:29;;;;;;;8.93;5.07;;;20.00;84.00;;;;;;4890102;29;20029;-82
2021/07/03 08:55:55;;;;;;;6.82;4.70;;;20.00;82.60;;;;;;4888636;29;20025;-82
2021/07/03 08:58:21;;;;;;;7.75;4.82;;;20.10;82.10;;;;;;4918135;29;20031;-83
2021/07/03 09:00:47;;;;;;;6.78;4.50;;;20.20;82.30;;;;;;4920296;29;20032;-85
2021/07/03 09:03:20;;;;;;;6.85;4.80;;;20.30;82.40;;;;;;4887772;29;20057;-84
2021/07/03 09:05:57;;;;;;;7.35;4.55;;;20.30;81.80;;;;;;4920517;29;20123;-85
2021/07/03 09:08:25;;;;;;;7.93;5.07;;;20.30;81.90;;;;;;4884718;29;20084;-84
2021/07/03 09:11:08;;;;;;;7.93;4.72;;;20.40;81.60;;;;;;4889244;29;20028;-84
2021/07/03 09:13:39;;;;;;;8.85;4.70;;;20.40;81.30;;;;;;4894979;29;20025;-83
2021/07/03 09:16:05;;;;;;;8.07;4.70;;;20.40;81.50;;;;;;4896561;29;20036;-81
2021/07/03 09:18:32;;;;;;;7.65;4.13;;;20.50;80.40;;;;;;4898418;29;20020;-82
2021/07/03 09:21:03;;;;;;;7.18;3.70;;;20.50;79.20;;;;;;4898626;29;20032;-83
2021/07/03 09:23:35;;;;;;;6.22;3.45;;;20.60;78.50;;;;;;4898475;29;20120;-82
2021/07/03 09:26:03;;;;;;;4.65;3.55;;;20.70;77.30;;;;;;4897604;29;20020;-82
2021/07/03 09:28:36;;;;;;;7.28;3.63;;;20.60;76.20;;;;;;4898693;29;20458;-83
2021/07/03 09:31:03;;;;;;;6.30;3.53;;;20.60;74.20;;;;;;4898230;29;20435;-83
2021/07/03 09:33:34;;;;;;;4.28;3.35;;;20.60;74.30;;;;;;4898388;29;20029;-83
2021/07/03 09:36:01;;;;;;;5.65;3.65;;;20.60;74.10;;;;;;4898101;29;20060;-80
2021/07/03 09:38:33;;;;;;;4.35;3.33;;;20.60;75.30;;;;;;4896255;29;20047;-79
2021/07/03 09:41:16;;;;;;;6.28;3.70;;;20.50;74.30;;;;;;4897618;29;20029;-80
2021/07/03 09:43:51;;;;;;;21.85;3.88;;;20.60;73.70;;;;;;4906779;29;20124;-80
2021/07/03 09:46:52;;;;;;;4.95;3.17;;;20.80;71.40;;;;;;4911402;29;20028;-80
2021/07/03 09:49:28;;;;;;;4.18;2.65;;;21.10;69.70;;;;;;4843371;29;20125;-80
2021/07/03 09:51:56;;;;;;;3.30;2.65;;;21.10;70.20;;;;;;4884609;29;20078;-81
2021/07/03 09:54:24;;;;;;;4.70;2.97;;;21.20;69.00;;;;;;4925365;29;20033;-81
2021/07/03 09:57:00;;;;;;;4.90;3.00;;;21.20;69.20;;;;;;4910978;29;20061;-80
2021/07/03 09:59:30;;;;;;;5.43;3.20;;;21.30;69.00;;;;;;4899486;29;20028;-82
2021/07/03 10:01:55;;;;;;;3.85;2.97;;;21.30;70.70;;;;;;4901476;29;20032;-81
2021/07/03 10:04:21;;;;;;;4.25;3.17;;;21.40;70.70;;;;;;4901400;29;20073;-81
2021/07/03 10:06:51;;;;;;;5.15;3.45;;;21.40;70.90;;;;;;4901663;29;20107;-80
2021/07/03 10:09:38;;;;;;;5.10;3.20;;;21.50;70.90;;;;;;4896194;29;20029;-81
2021/07/03 10:12:08;;;;;;;3.47;3.03;;;21.50;69.80;;;;;;4924025;29;20037;-81
2021/07/03 10:14:39;;;;;;;6.13;2.75;;;21.50;69.20;;;;;;4915337;29;20113;-79
2021/07/03 10:17:06;;;;;;;3.47;2.70;;;21.50;69.40;;;;;;4891206;29;20036;-80
2021/07/03 10:19:34;;;;;;;3.65;2.92;;;21.60;70.70;;;;;;4882918;29;20044;-80
2021/07/03 10:22:17;;;;;;;4.97;2.97;;;21.80;66.90;;;;;;4918415;29;20144;-80
2021/07/03 10:24:52;;;;;;;4.45;2.88;;;21.90;65.00;;;;;;4931869;29;20109;-79
2021/07/03 10:27:26;;;;;;;4.20;3.13;;;22.00;65.30;;;;;;4930813;29;20092;-79
2021/07/03 10:29:54;;;;;;;7.38;2.90;;;22.00;65.40;;;;;;4885575;29;20039;-79
2021/07/03 10:32:21;;;;;;;4.47;3.38;;;22.10;65.80;;;;;;4922412;29;20033;-79
2021/07/03 10:34:47;;;;;;;4.80;2.72;;;22.00;65.90;;;;;;4881047;29;20029;-78
2021/07/03 10:37:17;;;;;;;6.07;2.90;;;21.90;65.50;;;;;;4895581;29;20040;-79
2021/07/03 10:39:43;;;;;;;3.58;2.90;;;21.90;64.90;;;;;;4911112;29;20434;-79
2021/07/03 10:42:08;;;;;;;4.03;2.92;;;21.90;64.90;;;;;;4919078;29;20052;-80
2021/07/03 10:44:40;;;;;;;3.75;2.95;;;21.90;62.90;;;;;;4889184;29;20037;-79
2021/07/03 10:47:07;;;;;;;;;;;22.00;63.90;;;;;;4896999;29;20029;-81
2021/07/03 10:49:35;;;;;;;3.95;3.05;;;21.90;64.20;;;;;;4912178;29;19912;-81
2021/07/03 10:52:13;;;;;;;7.78;3.33;;;21.90;65.30;;;;;;4886742;29;20206;-81
2021/07/03 10:54:39;;;;;;;5.68;3.20;;;22.00;65.20;;;;;;4912915;29;20028;-83
2021/07/03 10:57:05;;;;;;;3.80;2.92;;;22.10;63.80;;;;;;4901121;29;20032;-85
2021/07/03 10:59:34;;;;;;;37.20;22.35;;;22.30;63.00;;;;;;4899907;29;20092;-82
2021/07/03 11:02:08;;;;;;;6.10;4.35;;;22.40;61.50;;;;;;4899810;29;20032;-83
2021/07/03 11:04:47;;;;;;;4.10;3.25;;;22.50;59.60;;;;;;4900811;29;20035;-80
2021/07/03 11:07:15;;;;;;;3.95;2.97;;;22.60;57.70;;;;;;4900397;29;20048;-82
2021/07/03 11:09:41;;;;;;;3.47;2.53;;;22.70;59.80;;;;;;4927142;29;20363;-81
2021/07/03 11:12:27;;;;;;;4.57;2.88;;;22.70;60.20;;;;;;4887163;29;20035;-80
2021/07/03 11:14:53;;;;;;;5.20;3.42;;;22.70;60.60;;;;;;4930452;29;20044;-80
2021/07/03 11:17:21;;;;;;;4.68;3.08;;;22.70;62.30;;;;;;4920878;29;20029;-80
2021/07/03 11:19:49;;;;;;;5.97;3.33;;;22.80;62.90;;;;;;4880498;29;20475;-80
2021/07/03 11:22:17;;;;;;;5.13;3.03;;;22.90;62.10;;;;;;4880479;29;20431;-81
2021/07/03 11:25:05;;;;;;;4.70;3.55;;;23.00;61.80;;;;;;4880667;29;20040;-80
2021/07/03 11:27:34;;;;;;;3.45;2.70;;;23.00;58.60;;;;;;4881814;29;20033;-80
2021/07/03 11:30:05;;;;;;;3.63;2.60;;;23.00;58.10;;;;;;4879916;29;20471;-79
2021/07/03 11:32:31;;;;;;;3.47;2.47;;;23.10;56.20;;;;;;4880562;29;20033;-80
2021/07/03 11:35:00;;;;;;;3.47;2.80;;;23.20;56.10;;;;;;4880124;29;20471;-80
2021/07/03 11:37:27;;;;;;;3.13;2.58;;;23.20;56.30;;;;;;4880538;29;20033;-80
2021/07/03 11:39:53;;;;;;;2.83;2.50;;;23.40;55.40;;;;;;4879978;29;20085;-80
2021/07/03 11:42:30;;;;;;;2.97;2.22;;;23.60;55.70;;;;;;4880315;29;20029;-80
2021/07/03 11:44:56;;;;;;;2.60;2.40;;;23.60;54.30;;;;;;4888225;29;20043;-80
2021/07/03 11:47:50;;;;;;;4.43;2.88;;;23.60;55.10;;;;;;4898825;29;20036;-80
2021/07/03 11:50:22;;;;;;;3.20;2.85;;;23.60;56.00;;;;;;4899559;29;20036;-81
2021/07/03 11:52:52;;;;;;;3.30;2.42;;;23.50;58.50;;;;;;4899025;29;20088;-81
2021/07/03 11:55:22;;;;;;;2.93;2.50;;;23.70;57.30;;;;;;4882923;29;20115;-81
2021/07/03 11:57:49;;;;;;;3.13;2.38;;;23.70;56.40;;;;;;4883441;29;20041;-82
2021/07/03 12:00:35;;;;;;;6.43;2.60;;;23.70;55.90;;;;;;4899783;29;20514;-80
2021/07/03 12:03:03;;;;;;;3.40;2.65;;;23.80;57.40;;;;;;4899360;29;20025;-81
2021/07/03 12:05:37;;;;;;;3.30;2.25;;;23.90;55.90;;;;;;4898553;29;20039;-80
2021/07/03 12:08:06;;;;;;;3.47;2.53;;;24.00;53.90;;;;;;4897983;29;20056;-80
2021/07/03 12:10:39;;;;;;;2.78;2.45;;;24.00;54.80;;;;;;4898505;29;20135;-82
2021/07/03 12:13:19;;;;;;;3.90;2.50;;;24.10;54.90;;;;;;4898214;29;20024;-81
2021/07/03 12:15:47;;;;;;;3.05;2.45;;;24.10;52.90;;;;;;4898598;29;20079;-81
2021/07/03 12:18:34;;;;;;;3.33;2.67;;;24.20;52.00;;;;;;4899404;29;20294;-82
2021/07/03 12:21:09;;;;;;;2.50;2.20;;;24.20;51.60;;;;;;4897472;29;20512;-81
2021/07/03 12:23:37;;;;;;;3.40;2.38;;;24.20;52.70;;;;;;4898668;29;20115;-81
2021/07/03 12:26:04;;;;;;;3.10;2.42;;;24.30;52.90;;;;;;4897817;29;20497;-83
2021/07/03 12:28:31;;;;;;;3.53;2.17;;;24.30;51.60;;;;;;4899531;29;20028;-83
2021/07/03 12:31:08;;;;;;;4.25;2.00;;;24.50;51.10;;;;;;4897866;29;20037;-81
2021/07/03 12:33:35;;;;;;;2.53;2.20;;;24.60;50.20;;;;;;4930104;29;20040;-83
2021/07/03 12:36:02;;;;;;;3.85;2.47;;;24.70;49.40;;;;;;4914021;29;20112;-83
2021/07/03 12:38:28;;;;;;;2.75;2.17;;;24.80;48.40;;;;;;4914736;29;20029;-82
2021/07/03 12:40:55;;;;;;;2.90;2.17;;;24.90;47.80;;;;;;4914148;29;20044;-83
2021/07/03 12:43:31;;;;;;;4.25;2.30;;;25.00;47.90;;;;;;4899366;29;20378;-83
2021/07/03 12:46:05;;;;;;;3.38;1.98;;;25.10;47.10;;;;;;4899118;29;20033;-83
2021/07/03 12:48:35;;;;;;;2.58;2.17;;;25.30;45.30;;;;;;4923890;29;20382;-83